LICC

Details ICAO LICC (CTA)
Name Catania Fontanarossa
Region Italy
Timezone Europe/Rome (UTC+2.0)
Plans Departing 668
Arriving 661
Stats Elevation 39 ft / 12 m (AMSL)
Location 37.466779° 15.066401°
Runways 1
Magnetic Variation 3.265° E
Sunrise 2018-06-19 03:39:54 UTC / 2018-06-19 05:39:54 Local
Sunset 2018-06-19 18:24:45 UTC / 2018-06-19 20:24:45 Local
Advertisement - Login to hide

Runways

ID Width Length Bearing (true) Bearing (mag) Surface Threshold Offset Overrun Length
08 148 ft / 45 m 7,985 ft / 2,434 m 83.94° 80.68° Asphalt 312 ft / 95 m 0 ft / 0 m
26 148 ft / 45 m 7,985 ft / 2,434 m 263.95° 260.69° Asphalt 279 ft / 85 m 0 ft / 0 m

Approach Navaids

Runway Type Ident Frequency Range Bearing (true) Bearing (mag) Slope Elevation
08 Localiser CTN 109.90 MHz 18 nm / 33 km 83.98° 80.71° - 25 ft / 8 m (AMSL)
08 Glidescope CTN 109.90 MHz 10 nm / 19 km 83.94° 80.68° 3.00° 25 ft / 8 m (AMSL)
08 DME CTN 109.90 MHz 18 nm / 33 km - - - 45 ft / 14 m (AMSL)

Map

Weather


0- 5 10 15 20 25 30 35+ Temperature / ° C

Clouds and Precipitation
Forecast for 2018-06-20 00:00 UTC. Updated 33 minutes ago

Ground ~20,000 ft ~40,000 ft Winds

METAR

LICC 192150Z 27004KT CAVOK 21/19 Q1015

TAF

TAF LICC 191700Z 1918/2018 08010KT 9999 SCT030 BECMG 1919/1921 25007KT BECMG 2009/2011 08012KT

Frequencies

Ground 129.72 MHz GND
Approach 120.80 MHz DIRECTOR
Tower 118.70 MHz TWR
Warning: Do not use this data for real-world aviation or navigation. No guarantee of current accuracy is given.